createdAt,value
2019-02-24T00:01:53.891Z,99.90
2019-02-24T00:04:24.087Z,99.90
2019-02-24T00:06:54.307Z,99.90
2019-02-24T00:09:24.980Z,99.90
2019-02-24T00:11:55.193Z,99.90
2019-02-24T00:14:25.911Z,99.90
2019-02-24T00:16:56.580Z,99.90
2019-02-24T00:19:27.072Z,99.90
2019-02-24T00:21:57.319Z,99.90
2019-02-24T00:24:27.610Z,99.90
2019-02-24T00:26:57.898Z,99.90
2019-02-24T00:29:28.140Z,99.90
2019-02-24T00:31:58.356Z,99.90
2019-02-24T00:34:28.688Z,99.90
2019-02-24T00:36:58.941Z,99.90
2019-02-24T00:39:29.150Z,99.90
2019-02-24T00:41:59.392Z,99.90
2019-02-24T00:44:30.031Z,99.90
2019-02-24T00:47:00.218Z,99.90
2019-02-24T00:49:30.492Z,99.90
2019-02-24T00:52:00.728Z,99.90
2019-02-24T00:54:30.928Z,99.90
2019-02-24T00:57:01.188Z,99.90
2019-02-24T00:59:31.397Z,99.90
2019-02-24T01:02:01.987Z,99.90
2019-02-24T01:04:32.331Z,99.90
2019-02-24T01:07:02.616Z,99.90
2019-02-24T01:09:33.158Z,99.90
2019-02-24T01:12:03.382Z,99.90
2019-02-24T01:14:33.606Z,99.90
2019-02-24T01:17:04.113Z,99.90
2019-02-24T01:19:34.278Z,99.90
2019-02-24T01:22:04.904Z,99.90
2019-02-24T01:24:35.114Z,99.90
2019-02-24T01:27:05.752Z,99.90
2019-02-24T01:29:35.937Z,99.90
2019-02-24T01:32:06.092Z,99.90
2019-02-24T01:34:36.279Z,99.90
2019-02-24T01:37:06.473Z,99.90
2019-02-24T01:39:36.657Z,99.90
2019-02-24T01:42:07.175Z,99.90
2019-02-24T01:44:37.353Z,99.90
2019-02-24T01:47:07.589Z,99.90
2019-02-24T01:49:37.784Z,99.90
2019-02-24T01:52:08.063Z,99.90
2019-02-24T01:54:38.581Z,99.90
2019-02-24T01:57:08.791Z,99.90
2019-02-24T01:59:39.229Z,99.90
2019-02-24T02:02:09.453Z,99.90
2019-02-24T02:04:39.582Z,99.90
2019-02-24T02:07:09.779Z,99.90
2019-02-24T02:09:40.330Z,99.90
2019-02-24T02:12:12.153Z,99.90
2019-02-24T02:14:42.629Z,99.90
2019-02-24T02:17:13.894Z,99.90
2019-02-24T02:19:44.332Z,99.90
2019-02-24T02:22:14.525Z,99.90
2019-02-24T02:24:44.756Z,99.90
2019-02-24T02:27:14.941Z,99.90
2019-02-24T02:29:45.493Z,99.90
2019-02-24T02:32:16.013Z,99.90
2019-02-24T02:34:46.209Z,99.90
2019-02-24T02:37:16.477Z,99.90
2019-02-24T02:39:46.596Z,99.90
2019-02-24T02:42:16.836Z,99.90
2019-02-24T02:44:46.998Z,99.90
2019-02-24T02:47:17.536Z,99.90
2019-02-24T02:49:47.645Z,99.90
2019-02-24T02:52:17.890Z,99.90
2019-02-24T02:54:48.096Z,99.90
2019-02-24T02:57:18.654Z,99.90
2019-02-24T02:59:48.831Z,99.90
2019-02-24T03:02:24.377Z,99.90
2019-02-24T03:04:51.280Z,99.90
2019-02-24T03:07:40.845Z,99.90
2019-02-24T03:10:11.082Z,99.90
2019-02-24T03:12:41.368Z,99.90
2019-02-24T03:15:11.549Z,99.90
2019-02-24T03:17:41.771Z,99.90
2019-02-24T03:20:12.236Z,99.90
2019-02-24T03:22:42.457Z,99.90
2019-02-24T03:25:12.696Z,99.90
2019-02-24T03:27:42.912Z,99.90
2019-02-24T03:30:12.367Z,99.90
2019-02-24T03:32:42.858Z,99.90
2019-02-24T03:35:13.417Z,99.90
2019-02-24T03:37:43.625Z,99.90
2019-02-24T03:40:14.366Z,99.90
2019-02-24T03:42:44.632Z,99.90
2019-02-24T03:45:14.785Z,99.90
2019-02-24T03:47:45.308Z,99.90
2019-02-24T03:50:15.872Z,99.90
2019-02-24T03:52:46.136Z,99.90
2019-02-24T03:55:16.630Z,99.90
2019-02-24T03:57:47.186Z,99.90
2019-02-24T04:00:17.453Z,99.90
2019-02-24T04:06:07.197Z,99.90
2019-02-24T04:08:37.434Z,99.90
2019-02-24T04:11:07.912Z,99.90
2019-02-24T04:13:38.154Z,99.90
2019-02-24T04:16:08.353Z,99.90
2019-02-24T04:18:39.983Z,99.90
2019-02-24T04:21:10.255Z,99.90
2019-02-24T04:23:40.502Z,99.90
2019-02-24T04:26:10.669Z,99.90
2019-02-24T04:28:41.553Z,99.90
2019-02-24T04:31:11.759Z,99.90
2019-02-24T04:33:41.922Z,99.90
2019-02-24T04:36:12.176Z,99.90
2019-02-24T04:38:42.761Z,99.90
2019-02-24T04:41:13.077Z,99.90
2019-02-24T04:43:43.368Z,99.90
2019-02-24T04:46:13.531Z,99.90
2019-02-24T04:48:44.149Z,99.90
2019-02-24T04:51:15.314Z,99.90
2019-02-24T04:53:46.390Z,99.90
2019-02-24T04:56:17.829Z,99.90
2019-02-24T04:58:48.107Z,99.90
2019-02-24T05:01:18.618Z,99.90
2019-02-24T05:03:48.856Z,99.90
2019-02-24T05:06:19.112Z,99.90
2019-02-24T05:08:49.804Z,99.90
2019-02-24T05:11:20.049Z,99.90
2019-02-24T05:13:50.346Z,99.90
2019-02-24T05:16:20.554Z,99.90
2019-02-24T05:18:50.840Z,99.90
2019-02-24T05:21:22.462Z,99.90
2019-02-24T05:23:52.807Z,99.90
2019-02-24T05:26:23.049Z,99.90
2019-02-24T05:28:53.415Z,99.90
2019-02-24T05:31:23.649Z,99.90
2019-02-24T05:33:54.204Z,99.90
2019-02-24T05:36:24.440Z,99.90
2019-02-24T05:38:54.699Z,99.90
2019-02-24T05:41:24.976Z,99.90
2019-02-24T05:43:55.258Z,99.90
2019-02-24T05:46:25.865Z,99.90
2019-02-24T05:48:56.290Z,99.90
2019-02-24T05:51:26.515Z,99.90
2019-02-24T05:53:56.767Z,99.90
2019-02-24T05:56:27.091Z,99.90
2019-02-24T05:58:57.646Z,99.90
2019-02-24T06:01:27.874Z,99.90
2019-02-24T06:03:58.105Z,99.90
2019-02-24T06:06:28.264Z,99.90
2019-02-24T06:08:58.491Z,99.90
2019-02-24T06:11:28.669Z,99.90
2019-02-24T06:13:58.909Z,99.90
2019-02-24T06:16:29.109Z,99.90
2019-02-24T06:18:59.663Z,99.90
2019-02-24T06:21:30.598Z,99.90
2019-02-24T06:24:00.837Z,99.90
2019-02-24T06:26:31.151Z,99.90
2019-02-24T06:29:01.395Z,99.90
2019-02-24T06:31:31.621Z,99.90
2019-02-24T06:34:02.181Z,99.90
2019-02-24T06:36:32.464Z,99.90
2019-02-24T06:39:02.774Z,99.90
2019-02-24T06:41:33.500Z,99.90
2019-02-24T06:44:04.142Z,99.90
2019-02-24T06:46:34.354Z,99.90
2019-02-24T06:49:04.581Z,99.90
2019-02-24T06:51:35.014Z,99.90
2019-02-24T06:54:05.339Z,99.90
2019-02-24T06:56:35.524Z,99.90
2019-02-24T06:59:06.067Z,99.90
2019-02-24T07:01:36.235Z,99.90
2019-02-24T07:04:06.444Z,99.90
2019-02-24T07:06:36.627Z,99.90
2019-02-24T07:09:07.236Z,99.90
2019-02-24T07:11:37.431Z,99.90
2019-02-24T07:14:08.690Z,99.90
2019-02-24T07:16:39.179Z,99.90
2019-02-24T07:19:09.496Z,99.90
2019-02-24T07:21:39.687Z,99.90
2019-02-24T07:24:10.664Z,99.90
2019-02-24T07:26:40.892Z,99.90
2019-02-24T07:29:11.130Z,99.90
2019-02-24T07:31:41.342Z,99.90
2019-02-24T07:34:11.686Z,99.90
2019-02-24T07:36:41.942Z,99.90
2019-02-24T07:39:12.634Z,99.90
2019-02-24T07:41:42.902Z,99.90
2019-02-24T07:44:13.467Z,99.90
2019-02-24T07:46:43.656Z,99.90
2019-02-24T07:49:13.906Z,99.90
2019-02-24T07:51:44.124Z,99.90
2019-02-24T07:54:14.273Z,99.90
2019-02-24T07:56:44.513Z,99.90
2019-02-24T07:59:14.745Z,99.90
2019-02-24T08:01:46.022Z,99.90
2019-02-24T08:04:16.205Z,99.90
2019-02-24T08:06:46.392Z,99.90
2019-02-24T08:09:18.023Z,99.90
2019-02-24T08:11:48.237Z,99.90
2019-02-24T08:14:18.436Z,99.90
2019-02-24T08:16:48.635Z,99.90
2019-02-24T08:19:19.167Z,99.90
2019-02-24T08:21:49.386Z,99.90
2019-02-24T08:24:19.701Z,99.90
2019-02-24T08:26:49.963Z,99.90
2019-02-24T08:29:20.117Z,99.90
2019-02-24T08:31:50.282Z,99.90
2019-02-24T08:34:20.551Z,99.90
2019-02-24T08:36:51.034Z,99.90
2019-02-24T08:39:21.419Z,99.90
2019-02-24T08:41:52.014Z,99.90
2019-02-24T08:44:22.372Z,99.90
2019-02-24T08:46:53.701Z,99.90
2019-02-24T08:49:24.389Z,99.90
2019-02-24T08:51:55.019Z,99.90
2019-02-24T08:54:25.296Z,99.50
2019-02-24T08:56:56.128Z,98.30
2019-02-24T08:59:26.472Z,97.50
2019-02-24T09:01:56.726Z,97.80
2019-02-24T09:04:28.024Z,96.60
2019-02-24T09:06:58.366Z,96.30
2019-02-24T09:09:28.600Z,96.40
2019-02-24T09:11:59.160Z,96.60
2019-02-24T09:14:29.332Z,97.40
2019-02-24T09:16:59.660Z,95.70
2019-02-24T09:19:30.132Z,96.00
2019-02-24T09:22:00.384Z,95.40
2019-02-24T09:24:30.981Z,94.60
2019-02-24T09:27:01.588Z,93.70
2019-02-24T09:29:32.232Z,90.10
2019-02-24T09:32:02.521Z,90.40
2019-02-24T09:34:32.819Z,91.20
2019-02-24T09:37:03.077Z,94.20
2019-02-24T09:39:33.352Z,92.70
2019-02-24T09:42:03.952Z,84.80
2019-02-24T09:44:35.327Z,83.60
2019-02-24T09:47:05.561Z,77.70
2019-02-24T09:49:35.846Z,66.40
2019-02-24T09:52:06.017Z,63.10
2019-02-24T09:54:36.357Z,67.70
2019-02-24T09:57:06.994Z,58.90
2019-02-24T09:59:37.242Z,55.00
2019-02-24T10:02:07.727Z,55.00
2019-02-24T10:04:38.377Z,53.60
2019-02-24T10:07:08.607Z,52.60
2019-02-24T10:09:38.862Z,51.20
2019-02-24T10:12:09.135Z,52.70
2019-02-24T10:14:39.458Z,50.80
2019-02-24T10:17:09.674Z,50.10
2019-02-24T10:19:40.298Z,51.00
2019-02-24T10:22:10.593Z,52.30
2019-02-24T10:24:40.933Z,48.00
2019-02-24T10:27:11.580Z,48.70
2019-02-24T10:29:41.889Z,47.80
2019-02-24T10:32:12.046Z,46.70
2019-02-24T10:34:42.338Z,48.90
2019-02-24T10:37:12.897Z,47.70
2019-02-24T10:39:43.156Z,49.60
2019-02-24T10:42:14.844Z,49.10
2019-02-24T10:44:45.145Z,44.70
2019-02-24T10:47:15.800Z,43.70
2019-02-24T10:49:46.133Z,43.60
2019-02-24T10:52:16.505Z,45.50
2019-02-24T10:54:46.725Z,42.20
2019-02-24T10:57:17.255Z,44.00
2019-02-24T10:59:47.551Z,41.30
2019-02-24T11:02:17.860Z,43.60
2019-02-24T11:04:49.004Z,43.60
2019-02-24T11:07:19.374Z,41.20
2019-02-24T11:09:49.681Z,42.20
2019-02-24T11:12:19.988Z,38.00
2019-02-24T11:14:50.253Z,36.10
2019-02-24T11:17:20.469Z,39.00
2019-02-24T11:19:50.781Z,41.00
2019-02-24T11:22:21.044Z,39.90
2019-02-24T11:24:51.412Z,39.00
2019-02-24T11:27:22.069Z,36.90
2019-02-24T11:29:52.240Z,39.50
2019-02-24T11:32:22.492Z,37.30
2019-02-24T11:34:54.196Z,36.90
2019-02-24T11:37:24.419Z,36.90
2019-02-24T11:39:55.735Z,34.80
2019-02-24T11:42:26.119Z,37.60
2019-02-24T11:44:56.366Z,33.50
2019-02-24T11:47:27.010Z,34.30
2019-02-24T11:49:57.310Z,34.30
2019-02-24T11:52:27.498Z,31.50
2019-02-24T11:54:58.075Z,31.30
2019-02-24T11:57:28.701Z,31.70
2019-02-24T11:59:59.088Z,31.40
2019-02-24T12:02:34.565Z,33.20
2019-02-24T12:05:01.293Z,33.10
2019-02-24T12:07:32.849Z,32.50
2019-02-24T12:10:03.467Z,29.20
2019-02-24T12:12:34.124Z,31.10
2019-02-24T12:15:05.040Z,29.50
2019-02-24T12:17:35.607Z,31.70
2019-02-24T12:20:07.337Z,30.50
2019-02-24T12:22:37.549Z,31.50
2019-02-24T12:25:10.588Z,29.80
2019-02-24T12:27:40.970Z,32.00
2019-02-24T12:30:11.580Z,31.50
2019-02-24T12:32:42.379Z,33.40
2019-02-24T12:35:12.583Z,29.10
2019-02-24T12:37:42.854Z,27.90
2019-02-24T12:40:13.212Z,27.10
2019-02-24T12:42:43.503Z,27.20
2019-02-24T12:45:13.741Z,26.20
2019-02-24T12:47:44.011Z,26.80
2019-02-24T12:50:15.277Z,27.20
2019-02-24T12:52:45.875Z,27.20
2019-02-24T12:55:16.605Z,26.40
2019-02-24T12:57:46.872Z,27.90
2019-02-24T13:00:19.155Z,27.20
2019-02-24T13:02:50.923Z,27.50
2019-02-24T13:05:21.159Z,29.60
2019-02-24T13:07:51.493Z,28.80
2019-02-24T13:10:21.809Z,28.10
2019-02-24T13:12:52.437Z,28.00
2019-02-24T13:15:22.660Z,29.30
2019-02-24T13:17:52.874Z,28.60
2019-02-24T13:20:23.501Z,29.60
2019-02-24T13:22:54.142Z,28.50
2019-02-24T13:25:24.752Z,30.00
2019-02-24T13:27:54.895Z,29.10
2019-02-24T13:30:25.361Z,28.30
2019-02-24T13:32:56.024Z,27.20
2019-02-24T13:35:26.626Z,28.50
2019-02-24T13:37:56.824Z,28.50
2019-02-24T13:40:27.440Z,28.10
2019-02-24T13:42:57.699Z,28.90
2019-02-24T13:45:28.072Z,27.10
2019-02-24T13:47:58.299Z,26.40
2019-02-24T13:50:28.556Z,28.50
2019-02-24T13:52:59.482Z,25.70
2019-02-24T13:55:30.092Z,26.80
2019-02-24T13:58:01.388Z,25.90
2019-02-24T14:00:31.818Z,27.50
2019-02-24T14:03:02.074Z,25.60
2019-02-24T14:05:32.922Z,25.50
2019-02-24T14:08:03.115Z,25.90
2019-02-24T14:10:33.350Z,26.70
2019-02-24T14:13:03.543Z,26.70
2019-02-24T14:15:34.077Z,29.30
2019-02-24T14:18:04.591Z,28.40
2019-02-24T14:20:35.214Z,31.00
2019-02-24T14:23:05.425Z,30.00
2019-02-24T14:25:35.650Z,32.10
2019-02-24T14:28:05.883Z,36.10
2019-02-24T14:30:36.502Z,35.00
2019-02-24T14:33:07.049Z,37.50
2019-02-24T14:35:37.328Z,37.40
2019-02-24T14:38:08.551Z,38.60
2019-02-24T14:40:38.838Z,38.50
2019-02-24T14:43:09.037Z,39.90
2019-02-24T14:45:39.353Z,38.50
2019-02-24T14:48:09.905Z,38.90
2019-02-24T14:50:40.116Z,37.60
2019-02-24T14:53:10.502Z,38.90
2019-02-24T14:55:40.709Z,38.10
2019-02-24T14:58:11.988Z,39.70
2019-02-24T15:00:42.251Z,39.20
2019-02-24T15:03:12.748Z,39.00
2019-02-24T15:05:42.985Z,39.10
2019-02-24T15:08:13.212Z,40.60
2019-02-24T15:10:43.442Z,40.70
2019-02-24T15:13:13.674Z,41.00
2019-02-24T15:15:44.301Z,41.30
2019-02-24T15:18:14.725Z,40.00
2019-02-24T15:20:45.048Z,37.90
2019-02-24T15:23:15.588Z,39.00
2019-02-24T15:25:45.892Z,39.30
2019-02-24T15:28:16.119Z,41.00
2019-02-24T15:30:46.418Z,41.20
2019-02-24T15:33:16.703Z,41.70
2019-02-24T15:35:46.925Z,42.20
2019-02-24T15:38:19.027Z,41.60
2019-02-24T15:40:49.395Z,42.60
2019-02-24T15:43:19.527Z,42.20
2019-02-24T15:45:50.217Z,41.90
2019-02-24T15:48:20.415Z,42.20
2019-02-24T15:50:50.985Z,41.90
2019-02-24T15:53:21.156Z,41.90
2019-02-24T15:55:51.364Z,41.90
2019-02-24T15:58:21.580Z,42.30
2019-02-24T16:00:51.837Z,41.10
2019-02-24T16:03:22.065Z,41.20
2019-02-24T16:05:52.323Z,41.30
2019-02-24T16:08:23.784Z,41.00
2019-02-24T16:10:54.406Z,41.30
2019-02-24T16:13:24.543Z,42.60
2019-02-24T16:15:55.376Z,40.70
2019-02-24T16:18:25.570Z,41.20
2019-02-24T16:20:55.786Z,42.50
2019-02-24T16:23:25.973Z,40.40
2019-02-24T16:25:56.620Z,41.10
2019-02-24T16:28:26.940Z,40.30
2019-02-24T16:30:57.143Z,40.80
2019-02-24T16:33:27.967Z,41.90
2019-02-24T16:35:58.315Z,41.40
2019-02-24T16:38:28.533Z,41.00
2019-02-24T16:40:59.161Z,42.30
2019-02-24T16:43:30.080Z,42.80
2019-02-24T16:46:00.414Z,42.50
2019-02-24T16:48:31.710Z,44.00
2019-02-24T16:51:01.866Z,43.80
2019-02-24T16:53:32.753Z,44.90
2019-02-24T16:56:03.331Z,45.10
2019-02-24T16:58:33.645Z,45.90
2019-02-24T17:01:04.494Z,46.60
2019-02-24T17:03:35.029Z,47.30
2019-02-24T17:06:10.324Z,47.70
2019-02-24T17:08:41.672Z,48.70
2019-02-24T17:11:12.304Z,49.00
2019-02-24T17:13:42.487Z,50.50
2019-02-24T17:16:14.049Z,51.80
2019-02-24T17:18:44.316Z,53.90
2019-02-24T17:21:14.507Z,53.50
2019-02-24T17:23:49.817Z,55.10
2019-02-24T17:26:17.047Z,56.20
2019-02-24T17:28:47.386Z,57.10
2019-02-24T17:31:17.780Z,57.90
2019-02-24T17:33:48.120Z,59.40
2019-02-24T17:36:18.529Z,61.00
2019-02-24T17:38:49.233Z,63.40
2019-02-24T17:41:19.533Z,65.70
2019-02-24T17:43:49.789Z,65.70
2019-02-24T17:46:20.076Z,69.10
2019-02-24T17:48:50.433Z,71.20
2019-02-24T17:51:21.656Z,71.70
2019-02-24T17:53:52.805Z,71.90
2019-02-24T17:56:23.035Z,79.50
2019-02-24T17:58:53.477Z,86.30
2019-02-24T18:01:23.794Z,86.20
2019-02-24T18:03:54.663Z,87.80
2019-02-24T18:06:25.351Z,90.00
2019-02-24T18:08:55.622Z,91.20
2019-02-24T18:11:25.865Z,91.90
2019-02-24T18:13:56.075Z,92.40
2019-02-24T18:16:26.405Z,91.30
2019-02-24T18:18:56.747Z,90.70
2019-02-24T18:21:27.068Z,91.50
2019-02-24T18:23:57.285Z,90.10
2019-02-24T18:26:27.911Z,90.30
2019-02-24T18:28:58.975Z,90.60
2019-02-24T18:31:29.280Z,90.50
2019-02-24T18:33:59.582Z,91.70
2019-02-24T18:36:30.164Z,92.00
2019-02-24T18:39:00.812Z,92.60
2019-02-24T18:41:32.732Z,92.40
2019-02-24T18:44:02.993Z,92.10
2019-02-24T18:46:34.342Z,93.80
2019-02-24T18:49:04.543Z,94.60
2019-02-24T18:51:34.839Z,93.90
2019-02-24T18:54:05.053Z,93.10
2019-02-24T18:56:35.304Z,94.10
2019-02-24T18:59:05.532Z,94.40
2019-02-24T19:01:36.078Z,95.10
2019-02-24T19:04:07.391Z,93.70
2019-02-24T19:06:39.395Z,92.40
2019-02-24T19:09:10.057Z,92.30
2019-02-24T19:11:41.574Z,91.20
2019-02-24T19:14:11.859Z,92.50
2019-02-24T19:16:42.219Z,90.90
2019-02-24T19:19:13.512Z,90.60
2019-02-24T19:21:44.207Z,88.70
2019-02-24T19:24:14.839Z,87.40
2019-02-24T19:26:45.172Z,88.60
2019-02-24T19:29:15.378Z,90.20
2019-02-24T19:31:45.613Z,91.60
2019-02-24T19:34:15.901Z,91.70
2019-02-24T19:36:48.555Z,91.70
2019-02-24T19:39:18.967Z,90.20
2019-02-24T19:41:49.552Z,83.40
2019-02-24T19:44:20.099Z,82.80
2019-02-24T19:46:50.363Z,80.40
2019-02-24T19:49:20.576Z,83.20
2019-02-24T19:51:50.869Z,80.70
2019-02-24T19:54:21.426Z,82.20
2019-02-24T19:56:51.789Z,86.40
2019-02-24T19:59:22.274Z,89.10
2019-02-24T20:01:52.609Z,90.60
2019-02-24T20:04:23.007Z,90.80
2019-02-24T20:06:53.309Z,91.50
2019-02-24T20:09:23.514Z,91.40
2019-02-24T20:11:53.808Z,94.00
2019-02-24T20:14:24.037Z,93.80
2019-02-24T20:16:55.001Z,94.40
2019-02-24T20:19:25.259Z,94.70
2019-02-24T20:21:55.703Z,94.10
2019-02-24T20:24:26.012Z,92.20
2019-02-24T20:26:56.349Z,84.40
2019-02-24T20:29:26.876Z,77.50
2019-02-24T20:31:57.187Z,73.70
2019-02-24T20:34:27.425Z,71.60
2019-02-24T20:36:57.654Z,73.10
2019-02-24T20:39:27.840Z,75.30
2019-02-24T20:41:58.104Z,74.10
2019-02-24T20:44:28.290Z,74.90
2019-02-24T20:46:58.566Z,78.00
2019-02-24T20:49:29.195Z,81.20
2019-02-24T20:51:59.415Z,85.20
2019-02-24T20:54:29.598Z,87.70
2019-02-24T20:56:59.815Z,88.70
2019-02-24T20:59:30.736Z,91.50
2019-02-24T21:02:00.961Z,92.20
2019-02-24T21:04:31.536Z,92.60
2019-02-24T21:07:01.765Z,93.50
2019-02-24T21:09:32.028Z,94.60
2019-02-24T21:12:02.636Z,95.60
2019-02-24T21:14:33.924Z,96.60
2019-02-24T21:17:04.189Z,98.10
2019-02-24T21:19:34.393Z,98.60
2019-02-24T21:22:05.282Z,98.90
2019-02-24T21:24:35.533Z,98.80
2019-02-24T21:27:07.062Z,98.50
2019-02-24T21:29:37.615Z,99.50
2019-02-24T21:32:07.910Z,99.90
2019-02-24T21:34:38.149Z,99.90
2019-02-24T21:37:08.798Z,99.90
2019-02-24T21:39:39.088Z,99.90
2019-02-24T21:42:09.628Z,99.90
2019-02-24T21:44:39.961Z,99.90
2019-02-24T21:47:10.203Z,99.90
2019-02-24T21:49:40.505Z,99.90
2019-02-24T21:52:11.540Z,99.90
2019-02-24T21:54:42.192Z,99.90
2019-02-24T21:57:12.449Z,99.90
2019-02-24T21:59:43.064Z,99.90
2019-02-24T22:02:13.316Z,99.90
2019-02-24T22:04:43.538Z,99.90
2019-02-24T22:07:14.105Z,99.90
2019-02-24T22:09:44.209Z,99.90
2019-02-24T22:12:14.497Z,99.90
2019-02-24T22:14:44.810Z,99.90
2019-02-24T22:17:16.122Z,99.70
2019-02-24T22:19:46.349Z,98.70
2019-02-24T22:22:16.563Z,97.50
2019-02-24T22:24:46.831Z,98.00
2019-02-24T22:27:17.117Z,98.20
2019-02-24T22:29:47.306Z,97.70
2019-02-24T22:32:17.549Z,95.40
2019-02-24T22:34:47.921Z,97.00
2019-02-24T22:37:18.137Z,96.60
2019-02-24T22:39:48.475Z,97.20
2019-02-24T22:42:18.786Z,96.90
2019-02-24T22:44:50.679Z,97.20
2019-02-24T22:47:20.891Z,97.60
2019-02-24T22:49:51.175Z,97.70
2019-02-24T22:52:22.175Z,98.20
2019-02-24T22:54:52.353Z,99.10
2019-02-24T22:57:24.795Z,99.90
2019-02-24T22:59:55.060Z,99.90
2019-02-24T23:02:25.756Z,99.90
2019-02-24T23:04:56.383Z,99.90
2019-02-24T23:07:26.587Z,99.90
2019-02-24T23:09:57.168Z,99.90
2019-02-24T23:12:27.464Z,99.90
2019-02-24T23:14:57.806Z,99.90
2019-02-24T23:17:28.806Z,99.90
2019-02-24T23:19:58.987Z,99.90
2019-02-24T23:22:29.549Z,99.90
2019-02-24T23:24:59.735Z,99.90
2019-02-24T23:27:30.211Z,99.90
2019-02-24T23:30:00.418Z,99.90
2019-02-24T23:32:43.487Z,99.90
2019-02-24T23:35:13.575Z,99.90
2019-02-24T23:37:43.843Z,99.90
2019-02-24T23:40:14.040Z,99.90
2019-02-24T23:42:45.640Z,99.90
2019-02-24T23:45:17.950Z,99.90
2019-02-24T23:47:48.174Z,99.90
2019-02-24T23:50:18.362Z,99.90
2019-02-24T23:52:49.079Z,99.90
2019-02-24T23:55:20.291Z,99.90
2019-02-24T23:57:54.634Z,99.90
